Time;durP1;ratioP1;P1;durP2;ratioP2;P2;SDS_P1;SDS_P2;PMS_P1;PMS_P2;Temp;Humidity;BMP_temperature;BMP_pressure;BME280_temperature;BME280_humidity;BME280_pressure;Samples;Min_cycle;Max_cycle;Signal;HPM_P1;HPM_P2
2023/10/15 00:00:47;;;;;;;2.25;0.60;;;8.10;99.90;;;;;;5052794;28;20032;-56
2023/10/15 00:03:12;;;;;;;2.00;0.60;;;8.20;99.90;;;;;;5052114;28;20047;-56
2023/10/15 00:05:38;;;;;;;2.85;0.50;;;8.20;99.90;;;;;;5070732;28;20043;-56
2023/10/15 00:08:04;;;;;;;2.80;0.80;;;8.30;99.90;;;;;;5049323;28;20064;-55
2023/10/15 00:10:34;;;;;;;1.95;0.30;;;8.20;99.90;;;;;;5090267;28;20029;-53
2023/10/15 00:13:00;;;;;;;2.17;0.40;;;8.20;99.90;;;;;;5069067;28;20028;-56
2023/10/15 00:15:28;;;;;;;3.70;0.70;;;8.20;99.90;;;;;;5069586;28;20037;-57
2023/10/15 00:18:02;;;;;;;3.22;0.30;;;8.20;99.90;;;;;;5070162;28;20558;-56
2023/10/15 00:20:35;;;;;;;1.67;0.30;;;8.30;99.90;;;;;;5070415;28;20033;-57
2023/10/15 00:23:04;;;;;;;3.25;0.50;;;8.10;99.90;;;;;;5090444;28;20048;-54
2023/10/15 00:25:35;;;;;;;1.15;0.28;;;8.10;99.90;;;;;;5090254;28;20082;-57
2023/10/15 00:28:05;;;;;;;3.88;0.88;;;8.20;99.90;;;;;;5092850;28;20384;-57
2023/10/15 00:30:32;;;;;;;3.53;0.68;;;8.10;99.90;;;;;;5075665;28;20290;-57
2023/10/15 00:33:09;;;;;;;3.00;0.50;;;7.90;99.90;;;;;;5094440;28;20510;-57
2023/10/15 00:35:35;;;;;;;1.15;0.40;;;7.90;99.90;;;;;;5084302;28;20037;-56
2023/10/15 00:38:11;;;;;;;1.50;0.30;;;7.70;99.90;;;;;;5074073;28;20043;-55
2023/10/15 00:40:41;;;;;;;2.55;0.40;;;7.90;99.90;;;;;;5073746;28;20120;-54
2023/10/15 00:43:07;;;;;;;1.50;0.50;;;7.60;99.90;;;;;;5055554;28;20033;-56
2023/10/15 00:45:44;;;;;;;2.97;0.40;;;7.60;99.90;;;;;;5073748;28;20081;-55
2023/10/15 00:48:22;;;;;;;4.55;0.50;;;7.60;99.90;;;;;;5073187;28;20032;-56
2023/10/15 00:50:49;;;;;;;5.28;0.98;;;7.50;99.90;;;;;;5055375;28;20396;-55
2023/10/15 00:53:24;;;;;;;6.22;0.70;;;7.50;99.90;;;;;;5073673;28;20036;-55
2023/10/15 00:55:54;;;;;;;1.95;0.68;;;7.50;99.90;;;;;;5073883;28;20063;-54
2023/10/15 01:03:55;;;;;;;2.00;0.50;;;7.20;99.90;;;;;;5073109;28;20396;-55
2023/10/15 01:06:49;;;;;;;3.72;1.00;;;7.20;99.90;;;;;;5055494;28;20043;-55
2023/10/15 01:09:20;;;;;;;1.08;0.43;;;7.20;99.90;;;;;;5072422;28;20056;-55
2023/10/15 01:11:56;;;;;;;3.10;0.57;;;7.20;99.90;;;;;;5073132;28;20518;-55
2023/10/15 01:14:44;;;;;;;2.20;0.75;;;7.30;99.90;;;;;;5072954;28;20109;-56
2023/10/15 01:17:09;;;;;;;3.00;0.50;;;7.20;99.90;;;;;;5072778;28;20552;-56
2023/10/15 01:19:36;;;;;;;2.17;0.43;;;7.00;99.90;;;;;;5072940;28;20036;-56
2023/10/15 01:22:03;;;;;;;1.73;0.50;;;7.30;99.90;;;;;;5073164;28;20039;-53
2023/10/15 01:24:36;;;;;;;4.30;1.10;;;7.30;99.90;;;;;;5073471;28;20040;-55
2023/10/15 01:27:09;;;;;;;1.45;0.40;;;7.10;99.90;;;;;;5072621;28;20497;-56
2023/10/15 01:29:43;;;;;;;3.87;0.83;;;7.10;99.90;;;;;;5073013;28;20056;-54
2023/10/15 01:34:37;;;;;;;2.28;0.55;;;7.20;99.90;;;;;;5054797;28;20381;-53
2023/10/15 01:39:48;;;;;;;6.72;0.77;;;7.20;99.90;;;;;;5071059;28;20083;-56
2023/10/15 01:45:13;;;;;;;3.33;0.90;;;7.20;99.90;;;;;;5072755;28;20056;-53
2023/10/15 01:47:53;;;;;;;4.93;1.50;;;7.30;99.90;;;;;;5052142;28;20480;-55
2023/10/15 01:50:34;;;;;;;3.35;0.50;;;7.40;99.90;;;;;;5092282;28;20477;-56
2023/10/15 01:53:05;;;;;;;4.65;0.65;;;7.40;99.90;;;;;;5074289;28;20040;-55
2023/10/15 01:55:35;;;;;;;3.72;0.65;;;7.30;99.90;;;;;;5091449;28;20031;-55
2023/10/15 01:58:04;;;;;;;3.33;0.50;;;7.20;99.90;;;;;;5052152;28;20051;-56
2023/10/15 02:00:33;;;;;;;3.67;1.00;;;7.30;99.90;;;;;;5052473;28;20115;-56
2023/10/15 02:03:00;;;;;;;5.88;0.68;;;7.50;99.90;;;;;;5072034;28;20052;-56
2023/10/15 02:05:29;;;;;;;2.70;0.60;;;7.40;99.90;;;;;;5072194;28;20488;-55
2023/10/15 02:07:56;;;;;;;1.58;0.50;;;7.50;99.90;;;;;;5054056;28;20044;-56
2023/10/15 02:10:22;;;;;;;2.13;0.43;;;7.50;99.90;;;;;;5055720;28;20037;-56
2023/10/15 02:13:21;;;;;;;3.33;0.60;;;7.40;99.90;;;;;;5051953;28;20060;-52
2023/10/15 02:15:40;;;;;;;5.28;1.30;;;7.50;99.90;;;;;;5089507;28;20121;-56
2023/10/15 02:18:08;;;;;;;3.38;0.63;;;7.40;99.90;;;;;;5091509;28;20032;-54
2023/10/15 02:20:44;;;;;;;5.25;0.82;;;7.30;99.90;;;;;;5092093;28;20036;-54
2023/10/15 02:23:20;;;;;;;4.05;0.55;;;7.30;99.90;;;;;;5091734;28;20036;-55
2023/10/15 02:25:58;;;;;;;5.82;0.75;;;7.30;99.90;;;;;;5092337;28;20040;-56
2023/10/15 02:28:31;;;;;;;2.85;0.85;;;7.20;99.90;;;;;;5079505;28;20039;-54
2023/10/15 02:31:00;;;;;;;4.22;0.93;;;7.30;99.90;;;;;;5070309;28;20045;-55
2023/10/15 02:33:27;;;;;;;2.95;0.65;;;7.40;99.90;;;;;;5071261;28;20957;-55
2023/10/15 02:35:59;;;;;;;1.85;0.70;;;7.10;99.90;;;;;;5091374;28;20104;-56
2023/10/15 02:38:34;;;;;;;4.95;0.82;;;7.10;99.90;;;;;;5092104;28;20410;-54
2023/10/15 02:43:29;;;;;;;5.05;1.10;;;7.20;99.90;;;;;;5092185;28;20399;-56
2023/10/15 02:46:12;;;;;;;3.83;0.80;;;7.00;99.90;;;;;;5060189;28;20514;-54
2023/10/15 02:48:41;;;;;;;3.30;0.70;;;7.30;99.90;;;;;;5069387;28;20979;-55
2023/10/15 02:51:08;;;;;;;4.32;1.00;;;7.00;99.90;;;;;;5069684;28;20154;-56
2023/10/15 02:53:39;;;;;;;4.10;0.82;;;7.00;99.90;;;;;;5071466;28;20141;-56
2023/10/15 02:56:11;;;;;;;3.30;0.80;;;7.00;99.90;;;;;;5071027;28;20044;-54
2023/10/15 02:58:38;;;;;;;1.70;0.50;;;7.00;99.90;;;;;;5071075;28;20040;-52
2023/10/15 03:01:17;;;;;;;2.45;0.70;;;6.90;99.90;;;;;;5070839;28;20044;-56
2023/10/15 03:03:49;;;;;;;5.82;0.82;;;6.70;99.90;;;;;;5091429;28;20509;-54
2023/10/15 03:06:18;;;;;;;3.83;0.85;;;6.80;99.90;;;;;;5091445;28;20502;-55
2023/10/15 03:08:46;;;;;;;3.72;0.40;;;6.80;99.90;;;;;;5057369;28;20049;-57
2023/10/15 03:11:12;;;;;;;8.10;1.52;;;6.60;99.90;;;;;;5050632;28;20037;-55
2023/10/15 03:13:53;;;;;;;2.53;0.60;;;6.70;99.90;;;;;;5051011;28;20045;-55
2023/10/15 03:16:22;;;;;;;6.45;1.50;;;6.70;99.90;;;;;;5062846;28;20047;-54
2023/10/15 03:18:48;;;;;;;6.32;0.80;;;7.10;99.90;;;;;;5090685;28;20036;-56
2023/10/15 03:21:27;;;;;;;4.30;0.90;;;6.90;99.90;;;;;;5090910;28;20525;-55
2023/10/15 03:23:57;;;;;;;2.72;0.50;;;7.00;99.90;;;;;;5074100;28;20178;-54
2023/10/15 03:26:24;;;;;;;3.58;0.50;;;7.10;99.90;;;;;;5051096;28;20492;-56
2023/10/15 03:28:58;;;;;;;4.13;0.75;;;6.90;99.90;;;;;;5069802;28;20396;-55
2023/10/15 03:31:25;;;;;;;2.28;0.43;;;7.10;99.90;;;;;;5070291;28;20052;-55
2023/10/15 03:36:44;;;;;;;7.95;1.00;;;6.90;99.90;;;;;;5070826;28;20434;-55
2023/10/15 03:39:15;;;;;;;3.08;0.60;;;7.00;99.90;;;;;;5070792;28;20032;-56
2023/10/15 03:41:49;;;;;;;3.05;0.60;;;7.00;99.90;;;;;;5070916;28;20047;-56
2023/10/15 03:44:23;;;;;;;5.15;0.98;;;6.90;99.90;;;;;;5051081;28;20041;-54
2023/10/15 03:46:49;;;;;;;5.20;0.73;;;7.20;99.90;;;;;;5070734;28;20041;-55
2023/10/15 03:49:15;;;;;;;6.10;1.13;;;7.00;99.90;;;;;;5070260;28;20097;-56
2023/10/15 03:51:49;;;;;;;2.38;0.50;;;7.30;99.90;;;;;;5070455;28;20559;-54
2023/10/15 03:54:15;;;;;;;3.90;0.65;;;6.90;99.90;;;;;;5054306;28;20041;-54
2023/10/15 03:56:43;;;;;;;3.97;0.80;;;6.90;99.90;;;;;;5050400;28;20044;-55
2023/10/15 03:59:12;;;;;;;2.65;0.47;;;7.10;99.90;;;;;;5050494;28;20052;-52
2023/10/15 04:01:43;;;;;;;4.68;0.60;;;6.70;99.90;;;;;;5049638;28;20546;-55
2023/10/15 04:04:09;;;;;;;5.15;1.08;;;6.80;99.90;;;;;;5054678;28;20392;-56
2023/10/15 04:06:35;;;;;;;4.55;0.63;;;6.90;99.90;;;;;;5055341;28;20056;-56
2023/10/15 04:11:38;;;;;;;4.22;0.60;;;6.80;99.90;;;;;;5054801;28;20123;-56
2023/10/15 04:14:49;;;;;;;6.35;0.50;;;6.60;99.90;;;;;;5054182;28;20041;-53
2023/10/15 04:16:50;;;;;;;2.97;0.68;;;6.90;99.90;;;;;;5046455;28;20073;-54
2023/10/15 04:19:19;;;;;;;7.35;1.25;;;6.60;99.90;;;;;;5054083;28;20127;-55
2023/10/15 04:21:45;;;;;;;4.80;1.20;;;6.90;99.90;;;;;;5053881;28;20029;-53
2023/10/15 04:24:17;;;;;;;3.15;0.60;;;6.90;99.90;;;;;;5054039;28;20602;-56
2023/10/15 04:26:48;;;;;;;2.40;0.70;;;7.10;99.90;;;;;;5052940;28;20055;-57
2023/10/15 04:29:18;;;;;;;3.20;0.80;;;7.00;99.90;;;;;;5054231;28;20090;-56
2023/10/15 04:32:04;;;;;;;5.93;1.30;;;7.00;99.90;;;;;;5052578;28;20064;-56
2023/10/15 04:34:31;;;;;;;5.43;1.70;;;6.70;99.90;;;;;;5073343;28;20037;-55
2023/10/15 04:36:57;;;;;;;7.03;0.85;;;6.90;99.90;;;;;;5073374;28;20040;-55
2023/10/15 04:39:23;;;;;;;2.72;0.88;;;6.90;99.90;;;;;;5074059;28;20032;-53
2023/10/15 04:41:55;;;;;;;3.17;0.60;;;7.10;99.90;;;;;;5073946;28;20047;-56
2023/10/15 04:44:31;;;;;;;6.70;1.02;;;6.90;99.90;;;;;;5055291;28;20380;-56
2023/10/15 04:47:04;;;;;;;4.40;1.27;;;7.50;99.90;;;;;;5044325;28;20253;-56
2023/10/15 04:49:32;;;;;;;6.03;1.40;;;7.00;99.90;;;;;;5072017;28;20075;-56
2023/10/15 04:51:58;;;;;;;4.03;1.05;;;7.30;99.90;;;;;;5093614;28;20592;-57
2023/10/15 04:54:25;;;;;;;5.90;0.68;;;7.00;99.90;;;;;;5093770;28;20063;-55
2023/10/15 04:56:52;;;;;;;4.65;0.73;;;7.10;99.90;;;;;;5093477;28;20055;-56
2023/10/15 04:59:18;;;;;;;4.05;0.80;;;7.30;99.90;;;;;;5064822;28;20045;-55
2023/10/15 05:01:45;;;;;;;5.68;1.30;;;7.10;99.90;;;;;;5053307;28;20040;-56
2023/10/15 05:04:13;;;;;;;3.03;0.60;;;7.20;99.90;;;;;;5053240;28;20037;-56
2023/10/15 05:06:38;;;;;;;3.70;0.50;;;7.10;99.90;;;;;;5073430;28;20054;-55
2023/10/15 05:09:08;;;;;;;4.97;0.80;;;7.30;99.90;;;;;;5073575;28;20040;-54
2023/10/15 05:11:34;;;;;;;5.88;1.50;;;7.30;99.90;;;;;;5073062;28;20102;-55
2023/10/15 05:14:00;;;;;;;4.55;0.55;;;7.30;99.90;;;;;;5073150;28;20041;-55
2023/10/15 05:16:26;;;;;;;5.70;0.75;;;7.20;99.90;;;;;;5055031;28;20053;-56
2023/10/15 05:18:52;;;;;;;1.95;0.30;;;7.00;99.90;;;;;;5062313;28;20045;-54
2023/10/15 05:21:17;;;;;;;5.05;0.57;;;7.10;99.90;;;;;;5052860;28;20029;-56
2023/10/15 05:23:45;;;;;;;6.10;0.80;;;7.00;99.90;;;;;;5053079;28;20036;-55
2023/10/15 05:26:12;;;;;;;5.45;1.08;;;7.10;99.90;;;;;;5073261;28;20059;-55
2023/10/15 05:28:37;;;;;;;3.80;0.50;;;7.00;99.90;;;;;;5072801;28;20093;-56
2023/10/15 05:31:03;;;;;;;5.53;0.82;;;7.10;99.90;;;;;;5072856;28;20480;-55
2023/10/15 05:33:29;;;;;;;5.43;0.82;;;6.80;99.90;;;;;;5079659;28;20032;-54
2023/10/15 05:35:56;;;;;;;2.55;0.75;;;6.80;99.90;;;;;;5052470;28;20041;-55
2023/10/15 05:38:22;;;;;;;3.35;0.88;;;6.80;99.90;;;;;;5052644;28;20052;-56
2023/10/15 05:40:49;;;;;;;5.15;0.80;;;6.80;99.90;;;;;;5052722;28;20028;-56
2023/10/15 05:43:17;;;;;;;5.57;0.80;;;6.70;99.90;;;;;;5052581;28;20029;-56
2023/10/15 05:45:46;;;;;;;5.45;0.52;;;6.80;99.90;;;;;;5052157;28;20045;-55
2023/10/15 05:48:11;;;;;;;4.22;0.60;;;6.60;99.90;;;;;;5052254;28;20040;-56
2023/10/15 05:50:39;;;;;;;5.57;0.85;;;6.80;99.90;;;;;;5060683;28;20052;-55
2023/10/15 05:53:06;;;;;;;4.68;0.80;;;6.60;99.90;;;;;;5053896;28;20036;-56
2023/10/15 05:55:32;;;;;;;2.08;0.40;;;6.70;99.90;;;;;;5071728;28;20111;-56
2023/10/15 05:57:58;;;;;;;3.80;0.40;;;6.80;99.90;;;;;;5072266;28;20080;-55
2023/10/15 06:00:27;;;;;;;5.25;0.82;;;6.80;99.90;;;;;;5072529;28;20085;-54
2023/10/15 06:02:54;;;;;;;3.00;0.63;;;6.70;99.90;;;;;;5072462;28;20463;-55
2023/10/15 06:05:21;;;;;;;0.50;0.30;;;6.70;99.90;;;;;;5072101;28;20029;-56
2023/10/15 06:07:48;;;;;;;3.30;0.40;;;6.70;99.90;;;;;;5069984;28;20128;-54
2023/10/15 06:10:15;;;;;;;3.88;0.40;;;6.80;99.90;;;;;;5070289;28;20051;-55
2023/10/15 06:12:42;;;;;;;5.20;0.77;;;6.60;99.90;;;;;;5054048;28;20527;-54
2023/10/15 06:15:15;;;;;;;1.02;0.38;;;6.90;99.90;;;;;;5072145;28;20064;-55
2023/10/15 06:17:41;;;;;;;2.40;0.55;;;6.70;99.90;;;;;;5071385;28;20040;-52
2023/10/15 06:20:13;;;;;;;4.28;0.50;;;6.80;99.90;;;;;;5071681;28;20086;-56
2023/10/15 06:22:43;;;;;;;2.28;0.77;;;6.90;99.90;;;;;;5072066;28;20123;-55
2023/10/15 06:25:11;;;;;;;3.72;0.50;;;6.70;99.90;;;;;;5071152;28;20044;-56
2023/10/15 06:27:41;;;;;;;2.88;0.60;;;6.90;99.90;;;;;;5071977;28;20045;-55
2023/10/15 06:30:16;;;;;;;1.85;0.60;;;6.70;99.90;;;;;;5064124;28;20076;-55
2023/10/15 06:32:47;;;;;;;2.38;0.40;;;6.90;99.90;;;;;;5039285;28;20040;-56
2023/10/15 06:35:18;;;;;;;1.42;0.32;;;6.70;99.90;;;;;;5060058;28;20051;-55
2023/10/15 06:37:47;;;;;;;4.55;0.90;;;6.80;99.90;;;;;;5058155;28;20059;-54
2023/10/15 06:40:14;;;;;;;3.45;0.52;;;6.90;99.90;;;;;;5056310;28;20066;-57
2023/10/15 06:42:40;;;;;;;3.13;0.50;;;6.70;99.90;;;;;;5056748;28;20041;-56
2023/10/15 06:45:06;;;;;;;1.38;0.30;;;6.70;99.90;;;;;;5056673;28;20044;-54
2023/10/15 06:47:37;;;;;;;1.90;0.30;;;6.60;99.90;;;;;;5056510;28;20092;-55
2023/10/15 06:50:07;;;;;;;5.28;0.68;;;6.70;99.90;;;;;;5038389;28;20068;-54
2023/10/15 06:52:41;;;;;;;3.17;0.50;;;7.00;99.90;;;;;;5039149;28;20049;-55
2023/10/15 06:55:08;;;;;;;3.95;0.60;;;6.90;99.90;;;;;;5053247;28;20048;-56
2023/10/15 06:57:38;;;;;;;4.60;0.85;;;6.70;99.90;;;;;;5053014;28;20040;-55
2023/10/15 07:00:09;;;;;;;3.50;0.50;;;7.10;99.90;;;;;;5054253;28;20036;-55
2023/10/15 07:02:35;;;;;;;5.03;0.55;;;6.70;99.90;;;;;;5055870;28;20028;-56
2023/10/15 07:05:02;;;;;;;1.20;0.40;;;6.80;99.90;;;;;;5053784;28;20033;-56
2023/10/15 07:07:28;;;;;;;2.05;0.75;;;6.90;99.90;;;;;;5054101;28;20029;-56
2023/10/15 07:09:54;;;;;;;5.05;0.77;;;6.90;99.90;;;;;;5056111;28;20040;-56
2023/10/15 07:12:20;;;;;;;2.20;0.63;;;6.70;99.90;;;;;;5055434;28;20047;-54
2023/10/15 07:14:47;;;;;;;2.40;0.40;;;6.90;99.90;;;;;;5054091;28;20508;-57
2023/10/15 07:17:13;;;;;;;0.73;0.30;;;6.80;99.90;;;;;;5053524;28;20707;-56
2023/10/15 07:19:38;;;;;;;3.45;0.30;;;7.00;99.90;;;;;;5056733;28;20033;-56
2023/10/15 07:22:04;;;;;;;5.05;0.47;;;7.20;99.90;;;;;;5036533;28;20044;-56
2023/10/15 07:24:31;;;;;;;2.03;0.60;;;7.20;99.90;;;;;;5056478;28;20039;-56
2023/10/15 07:26:57;;;;;;;0.88;0.40;;;7.30;99.90;;;;;;5057650;28;20036;-56
2023/10/15 07:29:24;;;;;;;3.05;0.40;;;7.10;99.90;;;;;;5056215;28;20040;-56
2023/10/15 07:31:51;;;;;;;4.47;0.95;;;7.30;99.90;;;;;;5049959;28;20048;-56
2023/10/15 07:34:22;;;;;;;1.13;0.38;;;7.00;99.90;;;;;;5050253;28;20049;-57
2023/10/15 07:36:51;;;;;;;2.30;0.45;;;7.20;99.90;;;;;;5050193;28;20048;-57
2023/10/15 07:39:17;;;;;;;1.08;0.32;;;7.20;99.90;;;;;;5049956;28;20048;-54
2023/10/15 07:41:45;;;;;;;4.15;1.00;;;7.30;99.90;;;;;;5050816;28;20535;-56
2023/10/15 07:44:12;;;;;;;2.10;0.55;;;7.30;99.90;;;;;;5069946;28;20059;-56
2023/10/15 07:46:39;;;;;;;1.08;0.30;;;7.50;99.90;;;;;;5070042;28;20522;-55
2023/10/15 07:49:05;;;;;;;5.70;0.63;;;7.50;99.90;;;;;;5051220;28;21582;-55
2023/10/15 07:51:30;;;;;;;4.20;0.80;;;7.40;99.90;;;;;;5069674;28;20058;-55
2023/10/15 07:53:56;;;;;;;1.23;0.50;;;7.60;99.90;;;;;;5070311;28;20063;-53
2023/10/15 07:56:22;;;;;;;0.63;0.30;;;7.60;99.90;;;;;;5069908;28;20097;-55
2023/10/15 07:58:50;;;;;;;5.53;0.93;;;7.60;99.90;;;;;;5068966;28;20079;-55
2023/10/15 08:01:16;;;;;;;1.73;0.47;;;7.70;99.90;;;;;;5052179;28;20037;-54
2023/10/15 08:03:42;;;;;;;2.22;0.40;;;7.70;99.90;;;;;;5051167;28;20033;-56
2023/10/15 08:06:08;;;;;;;6.32;0.50;;;8.00;99.90;;;;;;5050887;28;20392;-55
2023/10/15 08:08:34;;;;;;;9.73;0.85;;;8.10;99.90;;;;;;5053548;28;20048;-53
2023/10/15 08:11:01;;;;;;;6.22;0.60;;;8.10;99.90;;;;;;5050115;28;20062;-56
2023/10/15 08:13:27;;;;;;;5.68;0.75;;;8.30;99.90;;;;;;5039483;28;20029;-55
2023/10/15 08:15:53;;;;;;;2.47;0.50;;;8.40;99.90;;;;;;5049140;28;20087;-56
2023/10/15 08:18:20;;;;;;;3.03;0.55;;;8.40;99.90;;;;;;5058448;28;20112;-54
2023/10/15 08:20:46;;;;;;;4.60;0.93;;;8.20;99.90;;;;;;5053856;28;20546;-57
2023/10/15 08:23:13;;;;;;;3.92;0.50;;;8.00;99.90;;;;;;5058046;28;20106;-52
2023/10/15 08:25:39;;;;;;;3.80;0.50;;;8.10;99.90;;;;;;5055501;28;20044;-55
2023/10/15 08:28:05;;;;;;;3.75;0.50;;;7.90;99.90;;;;;;5052929;28;20044;-56
2023/10/15 08:30:34;;;;;;;2.55;0.80;;;7.80;99.90;;;;;;5050991;28;20045;-55
2023/10/15 08:33:00;;;;;;;2.25;0.40;;;7.90;99.90;;;;;;5049158;28;20043;-55
2023/10/15 08:35:26;;;;;;;1.40;0.40;;;7.90;99.90;;;;;;5052025;28;20496;-55
2023/10/15 08:37:52;;;;;;;1.30;0.47;;;8.00;99.90;;;;;;5051780;28;20041;-55
2023/10/15 08:40:17;;;;;;;1.77;0.40;;;8.10;99.90;;;;;;5049790;28;20487;-56
2023/10/15 08:42:46;;;;;;;3.40;0.73;;;8.10;99.90;;;;;;5048988;28;20067;-56
2023/10/15 08:45:13;;;;;;;0.75;0.45;;;8.10;99.90;;;;;;5038715;28;20083;-56
2023/10/15 08:47:39;;;;;;;5.00;0.68;;;8.20;99.90;;;;;;5051744;28;20558;-53
2023/10/15 08:50:06;;;;;;;0.55;0.30;;;8.40;99.90;;;;;;5059833;28;20041;-56
2023/10/15 08:52:32;;;;;;;2.75;0.47;;;8.30;99.90;;;;;;5052362;28;20080;-55
2023/10/15 08:54:59;;;;;;;2.28;0.40;;;8.50;99.90;;;;;;5052640;28;20134;-54
2023/10/15 08:57:26;;;;;;;2.35;0.80;;;8.60;99.90;;;;;;5052633;28;20152;-56
2023/10/15 08:59:53;;;;;;;1.27;0.45;;;8.60;99.90;;;;;;5052724;28;20106;-56
2023/10/15 09:02:19;;;;;;;2.25;0.50;;;8.70;99.90;;;;;;5052255;28;20098;-55
2023/10/15 09:04:45;;;;;;;5.40;0.63;;;8.90;99.90;;;;;;5044863;28;20468;-54
2023/10/15 09:07:14;;;;;;;1.85;0.30;;;9.10;99.90;;;;;;5052382;28;20037;-55
2023/10/15 09:09:41;;;;;;;2.00;0.40;;;9.20;99.90;;;;;;5037295;28;20040;-57
2023/10/15 09:12:07;;;;;;;3.65;0.63;;;9.10;99.90;;;;;;5053716;28;20047;-56
2023/10/15 09:14:40;;;;;;;4.93;0.85;;;8.90;99.90;;;;;;5074243;28;20040;-55
2023/10/15 09:17:09;;;;;;;4.80;0.90;;;8.60;99.90;;;;;;5075216;28;20110;-55
2023/10/15 09:19:37;;;;;;;7.28;1.15;;;8.40;99.90;;;;;;5092263;28;20032;-55
2023/10/15 09:22:08;;;;;;;3.60;0.50;;;8.20;99.90;;;;;;5058139;28;20038;-55
2023/10/15 09:24:36;;;;;;;2.85;0.50;;;8.10;99.90;;;;;;5035065;28;20048;-55
2023/10/15 09:27:05;;;;;;;5.00;0.57;;;7.90;99.90;;;;;;5054652;28;20047;-55
2023/10/15 09:29:32;;;;;;;3.65;0.98;;;7.80;99.90;;;;;;5052253;28;20049;-55
2023/10/15 09:32:02;;;;;;;5.07;0.52;;;7.90;99.90;;;;;;5034475;28;20044;-52
2023/10/15 09:34:29;;;;;;;3.60;0.55;;;8.00;99.90;;;;;;5053915;28;20033;-56
2023/10/15 09:36:54;;;;;;;7.32;0.88;;;8.20;99.90;;;;;;5052888;28;20423;-54
2023/10/15 09:39:22;;;;;;;3.75;0.35;;;8.40;99.90;;;;;;5030540;28;20031;-52
2023/10/15 09:41:48;;;;;;;5.35;0.60;;;8.70;99.90;;;;;;5053534;28;20041;-52
2023/10/15 09:44:16;;;;;;;2.67;0.70;;;8.90;99.90;;;;;;5052873;28;20044;-54
2023/10/15 09:46:43;;;;;;;5.05;0.90;;;9.10;99.90;;;;;;5052439;28;20091;-52
2023/10/15 09:49:10;;;;;;;2.53;0.65;;;9.10;99.90;;;;;;5053439;28;20036;-55
2023/10/15 09:51:40;;;;;;;4.00;1.23;;;9.40;99.90;;;;;;5046183;28;20056;-53
2023/10/15 09:54:14;;;;;;;1.63;0.50;;;9.40;99.90;;;;;;5036505;28;20518;-54
2023/10/15 09:56:45;;;;;;;5.05;0.65;;;9.40;99.90;;;;;;5034152;28;20033;-54
2023/10/15 09:59:11;;;;;;;2.38;0.60;;;9.50;99.90;;;;;;5036566;28;20072;-54
2023/10/15 10:01:44;;;;;;;7.72;0.70;;;9.50;99.90;;;;;;5053419;28;20064;-55
2023/10/15 10:04:40;;;;;;;8.23;1.08;;;9.60;99.90;;;;;;5052371;28;20103;-56
2023/10/15 10:07:05;;;;;;;4.78;0.75;;;9.70;99.90;;;;;;5056224;28;20098;-56
2023/10/15 10:09:58;;;;;;;5.40;0.90;;;9.80;99.90;;;;;;5052605;28;20040;-55
2023/10/15 10:12:53;;;;;;;8.02;0.80;;;9.90;99.90;;;;;;5038435;28;20086;-55
2023/10/15 10:15:33;;;;;;;;;;;10.20;99.90;;;;;;5053529;28;20397;-55
2023/10/15 10:18:00;;;;;;;4.28;1.00;;;10.20;99.90;;;;;;5058551;28;20342;-56
2023/10/15 10:20:33;;;;;;;5.13;0.88;;;10.50;99.90;;;;;;5045121;28;20082;-53
2023/10/15 10:23:06;;;;;;;7.30;0.77;;;10.70;99.90;;;;;;5060346;28;20063;-56
2023/10/15 10:25:45;;;;;;;6.60;0.88;;;10.90;99.90;;;;;;5051337;28;20361;-55
2023/10/15 10:28:15;;;;;;;4.20;0.60;;;11.10;99.90;;;;;;5035520;28;20044;-56
2023/10/15 10:31:08;;;;;;;5.60;0.95;;;11.20;99.90;;;;;;5054891;28;20384;-55
2023/10/15 10:33:42;;;;;;;6.10;1.00;;;11.40;99.90;;;;;;5053006;28;20134;-55
2023/10/15 10:36:15;;;;;;;8.23;0.90;;;11.40;99.90;;;;;;5056078;28;20124;-54
2023/10/15 10:38:42;;;;;;;8.15;1.10;;;11.40;99.90;;;;;;5052994;28;20420;-55
2023/10/15 10:41:14;;;;;;;5.90;0.90;;;11.40;99.90;;;;;;5050622;28;20128;-53
2023/10/15 10:43:45;;;;;;;4.05;0.90;;;11.40;99.90;;;;;;5054228;28;20037;-54
2023/10/15 10:46:23;;;;;;;7.15;1.25;;;11.30;99.90;;;;;;5052596;28;20394;-55
2023/10/15 10:49:07;;;;;;;7.53;1.25;;;11.30;99.90;;;;;;5052451;28;20091;-55
2023/10/15 10:51:35;;;;;;;7.80;1.23;;;11.40;99.90;;;;;;5039641;28;20076;-55
2023/10/15 10:54:03;;;;;;;5.32;1.77;;;11.40;99.90;;;;;;5052077;28;20048;-55
2023/10/15 10:56:41;;;;;;;9.88;1.17;;;11.40;99.90;;;;;;5038739;28;20044;-55
2023/10/15 10:59:07;;;;;;;8.90;1.30;;;11.20;99.90;;;;;;5056401;28;20356;-55
2023/10/15 11:01:37;;;;;;;7.07;0.90;;;11.00;99.90;;;;;;5052527;28;20120;-55
2023/10/15 11:04:04;;;;;;;8.68;0.88;;;11.00;99.90;;;;;;5020476;28;20163;-56
2023/10/15 11:06:29;;;;;;;11.15;1.58;;;11.10;99.90;;;;;;5053536;28;20036;-55
2023/10/15 11:08:55;;;;;;;9.07;1.55;;;11.30;99.90;;;;;;5054277;28;20094;-56
2023/10/15 11:11:21;;;;;;;6.80;1.30;;;11.60;99.90;;;;;;5034982;28;20048;-55
2023/10/15 11:13:49;;;;;;;9.45;0.98;;;11.90;99.90;;;;;;5051979;28;20040;-56
2023/10/15 11:16:16;;;;;;;7.60;0.85;;;12.00;99.90;;;;;;5053161;28;20590;-56
2023/10/15 11:18:45;;;;;;;7.43;1.40;;;12.00;99.90;;;;;;5040645;28;20048;-55
2023/10/15 11:21:11;;;;;;;7.32;1.08;;;11.80;99.90;;;;;;5051238;28;20048;-56
2023/10/15 11:23:38;;;;;;;11.75;1.35;;;11.70;99.90;;;;;;5049519;28;20150;-54
2023/10/15 11:26:04;;;;;;;6.15;1.20;;;11.00;99.90;;;;;;5052682;28;20063;-55
2023/10/15 11:28:30;;;;;;;4.32;0.82;;;10.20;99.90;;;;;;5049523;28;20033;-55
2023/10/15 11:30:56;;;;;;;7.32;1.60;;;9.60;99.90;;;;;;5052445;28;20028;-55
2023/10/15 11:33:23;;;;;;;6.65;1.20;;;9.30;99.90;;;;;;5052086;28;20090;-55
2023/10/15 11:35:50;;;;;;;4.85;0.80;;;9.00;99.90;;;;;;5055039;28;20029;-54
2023/10/15 11:38:15;;;;;;;4.32;0.70;;;8.90;99.90;;;;;;5051561;28;20040;-55
2023/10/15 11:40:41;;;;;;;5.30;1.35;;;8.80;99.90;;;;;;5047413;28;20495;-55
2023/10/15 11:43:19;;;;;;;6.72;0.60;;;8.90;99.90;;;;;;5052551;28;20040;-56
2023/10/15 11:45:46;;;;;;;6.43;0.90;;;9.30;99.90;;;;;;5049356;28;20029;-56
2023/10/15 11:48:13;;;;;;;9.27;1.50;;;9.70;99.90;;;;;;5051087;28;20045;-56
2023/10/15 11:50:41;;;;;;;3.30;0.70;;;10.10;99.90;;;;;;5049318;28;20049;-56
2023/10/15 11:53:20;;;;;;;4.75;0.60;;;10.50;99.90;;;;;;5051788;28;20193;-54
2023/10/15 11:55:47;;;;;;;3.28;0.80;;;10.80;99.90;;;;;;5020386;28;20104;-56
2023/10/15 11:58:16;;;;;;;5.80;1.30;;;11.10;99.90;;;;;;5048779;28;20040;-57
2023/10/15 12:00:42;;;;;;;3.88;0.70;;;11.50;99.90;;;;;;5048063;28;20029;-56
2023/10/15 12:03:09;;;;;;;4.90;0.93;;;11.60;99.90;;;;;;5049011;28;20029;-57
2023/10/15 12:05:37;;;;;;;7.45;0.93;;;11.90;99.90;;;;;;5049935;28;20044;-56
2023/10/15 12:08:04;;;;;;;4.18;0.85;;;12.10;99.90;;;;;;5049716;28;20044;-56
2023/10/15 12:10:32;;;;;;;8.20;1.45;;;12.40;99.90;;;;;;5053477;28;20064;-56
2023/10/15 12:13:02;;;;;;;7.75;1.20;;;12.50;99.90;;;;;;5052067;28;20048;-56
2023/10/15 12:15:30;;;;;;;5.82;0.90;;;12.60;99.90;;;;;;5054245;28;20166;-57
2023/10/15 12:17:59;;;;;;;5.72;1.08;;;12.70;99.90;;;;;;5038777;28;20160;-56
2023/10/15 12:20:26;;;;;;;5.80;1.10;;;12.80;99.90;;;;;;5053853;28;20071;-55
2023/10/15 12:22:52;;;;;;;7.03;1.00;;;12.80;99.90;;;;;;5042080;28;20131;-57
2023/10/15 12:25:18;;;;;;;3.17;0.85;;;12.70;99.90;;;;;;5058562;28;20111;-56
2023/10/15 12:27:43;;;;;;;5.43;1.00;;;12.50;99.90;;;;;;5059055;28;20425;-56
2023/10/15 12:30:27;;;;;;;3.92;0.85;;;12.30;99.90;;;;;;5054664;28;20484;-56
2023/10/15 12:33:01;;;;;;;6.30;0.73;;;12.30;99.90;;;;;;5055957;28;20058;-56
2023/10/15 12:35:28;;;;;;;6.15;0.95;;;12.40;99.90;;;;;;5045023;28;20490;-56
2023/10/15 12:38:03;;;;;;;6.00;0.75;;;12.60;99.90;;;;;;5040883;28;20076;-56
2023/10/15 12:40:31;;;;;;;6.40;0.93;;;12.70;99.90;;;;;;5058546;28;20040;-56
2023/10/15 12:42:59;;;;;;;3.85;0.80;;;12.90;99.90;;;;;;5057608;28;20037;-56
2023/10/15 12:45:25;;;;;;;4.75;0.65;;;13.00;99.90;;;;;;5060859;28;20870;-57
2023/10/15 12:47:50;;;;;;;4.10;0.65;;;13.10;99.90;;;;;;5059749;28;20051;-56
2023/10/15 12:50:16;;;;;;;4.30;0.70;;;13.30;99.90;;;;;;5057811;28;20053;-56
2023/10/15 12:52:47;;;;;;;5.50;0.80;;;13.30;99.90;;;;;;5055688;28;20037;-56
2023/10/15 12:55:18;;;;;;;5.88;0.90;;;13.40;99.90;;;;;;5055904;28;20078;-56
2023/10/15 12:57:46;;;;;;;6.30;0.75;;;13.50;99.90;;;;;;5047592;28;20041;-56
2023/10/15 13:00:18;;;;;;;5.43;0.68;;;13.60;99.90;;;;;;5056474;28;20029;-56
2023/10/15 13:02:53;;;;;;;9.35;1.30;;;13.70;99.90;;;;;;5056339;28;20600;-55
2023/10/15 13:05:21;;;;;;;8.13;1.80;;;13.80;99.90;;;;;;5052581;28;20037;-56
2023/10/15 13:07:48;;;;;;;6.97;1.08;;;13.90;99.90;;;;;;5055212;28;22560;-56
2023/10/15 13:10:15;;;;;;;8.20;1.10;;;14.00;99.90;;;;;;5053734;28;21429;-56
2023/10/15 13:12:44;;;;;;;4.45;0.82;;;13.90;99.90;;;;;;5053972;28;20036;-56
2023/10/15 13:15:10;;;;;;;6.75;0.90;;;13.80;99.90;;;;;;5054200;28;20380;-56
2023/10/15 13:17:37;;;;;;;7.70;0.98;;;13.70;99.90;;;;;;5054756;28;20043;-56
2023/10/15 13:20:06;;;;;;;5.45;1.02;;;13.70;99.90;;;;;;5053352;28;20048;-56
2023/10/15 13:22:34;;;;;;;3.88;0.80;;;13.90;99.90;;;;;;5054949;28;20048;-56
2023/10/15 13:25:00;;;;;;;5.85;1.20;;;13.80;99.90;;;;;;5056137;28;20028;-56
2023/10/15 13:27:26;;;;;;;5.45;1.02;;;13.60;99.90;;;;;;5054528;28;20510;-56